ETNN

Details ICAO ETNN
Name NORVENICH
Region Germany - Military
Timezone Europe/Berlin (UTC+1.0)
Plans Departing 10
Arriving 10
Stats Elevation 386 ft / 118 m (AMSL)
Location 50.831161° 6.658110°
Runways 1
Magnetic Variation 1.786° E
Sunrise 2017-12-14 07:29:51 UTC / 2017-12-14 08:29:51 Local
Sunset 2017-12-14 15:29:02 UTC / 2017-12-14 16:29:02 Local
Advertisement - Login to hide

Runways

ID Width Length Bearing (true) Bearing (mag) Surface Threshold Offset Overrun Length
07 148 ft / 45 m 7,980 ft / 2,432 m 66.61° 64.82° Asphalt 0 ft / 0 m 902 ft / 275 m
25 148 ft / 45 m 7,980 ft / 2,432 m 246.63° 244.84° Asphalt 0 ft / 0 m 902 ft / 275 m

Map

Weather


0- 5 10 15 20 25 30 35+ Temperature / ° C

Clouds and Precipitation
Forecast for 2017-12-14 06:00 UTC. Updated an hour ago

Ground ~20,000 ft ~40,000 ft Winds

METAR

ETNN 140420Z 29026G39KT 9999 -RA SCT010 BKN020 04/01 Q0990 WHT

TAF

Not found

Frequencies

Tower 136.20 MHz TWR
Approach 128.50 MHz LANGEN CON
Approach 123.30 MHz RADAR
Tower 122.10 MHz TWR
Approach 126.32 MHz LANGEN CON
Approach 129.85 MHz RADAR
Warning: Do not use this data for real-world aviation or navigation. No guarantee of current accuracy is given.